sensor_id;sensor_type;location;lat;lon;timestamp;temperature;humidity
64468;DHT22;50853;46.836;16.820;2022-10-04T00:04:43;9.90;70.90
64468;DHT22;50853;46.836;16.820;2022-10-04T00:14:54;9.80;72.30
64468;DHT22;50853;46.836;16.820;2022-10-04T00:17:29;9.70;72.80
64468;DHT22;50853;46.836;16.820;2022-10-04T00:19:56;9.70;74.20
64468;DHT22;50853;46.836;16.820;2022-10-04T00:22:29;9.70;75.10
64468;DHT22;50853;46.836;16.820;2022-10-04T00:25:16;9.70;73.90
64468;DHT22;50853;46.836;16.820;2022-10-04T00:30:35;9.80;71.90
64468;DHT22;50853;46.836;16.820;2022-10-04T00:33:03;9.70;73.50
64468;DHT22;50853;46.836;16.820;2022-10-04T00:38:07;9.70;75.10
64468;DHT22;50853;46.836;16.820;2022-10-04T00:40:41;9.70;74.90
64468;DHT22;50853;46.836;16.820;2022-10-04T00:43:18;9.70;77.60
64468;DHT22;50853;46.836;16.820;2022-10-04T00:45:52;9.70;78.50
64468;DHT22;50853;46.836;16.820;2022-10-04T00:48:30;9.70;81.70
64468;DHT22;50853;46.836;16.820;2022-10-04T00:56:26;9.70;80.30
64468;DHT22;50853;46.836;16.820;2022-10-04T01:01:25;9.70;83.70
64468;DHT22;50853;46.836;16.820;2022-10-04T01:03:53;9.70;83.10
64468;DHT22;50853;46.836;16.820;2022-10-04T01:06:23;9.60;84.80
64468;DHT22;50853;46.836;16.820;2022-10-04T01:08:55;9.60;85.70
64468;DHT22;50853;46.836;16.820;2022-10-04T01:11:30;9.60;82.20
64468;DHT22;50853;46.836;16.820;2022-10-04T01:14:10;9.50;83.20
64468;DHT22;50853;46.836;16.820;2022-10-04T01:16:42;9.50;82.70
64468;DHT22;50853;46.836;16.820;2022-10-04T01:19:30;9.50;83.50
64468;DHT22;50853;46.836;16.820;2022-10-04T01:24:48;9.40;79.60
64468;DHT22;50853;46.836;16.820;2022-10-04T01:27:34;9.40;77.60
64468;DHT22;50853;46.836;16.820;2022-10-04T01:30:04;9.50;77.20
64468;DHT22;50853;46.836;16.820;2022-10-04T01:32:32;9.50;75.90
64468;DHT22;50853;46.836;16.820;2022-10-04T01:34:58;9.50;73.60
64468;DHT22;50853;46.836;16.820;2022-10-04T01:37:25;9.60;72.20
64468;DHT22;50853;46.836;16.820;2022-10-04T01:39:51;9.60;72.30
64468;DHT22;50853;46.836;16.820;2022-10-04T01:42:25;9.70;71.10
64468;DHT22;50853;46.836;16.820;2022-10-04T01:45:05;9.70;70.20
64468;DHT22;50853;46.836;16.820;2022-10-04T01:47:36;9.70;70.20
64468;DHT22;50853;46.836;16.820;2022-10-04T01:50:10;9.70;69.80
64468;DHT22;50853;46.836;16.820;2022-10-04T01:52:50;9.80;69.80
64468;DHT22;50853;46.836;16.820;2022-10-04T01:55:23;9.70;70.20
64468;DHT22;50853;46.836;16.820;2022-10-04T01:57:58;9.70;70.00
64468;DHT22;50853;46.836;16.820;2022-10-04T02:00:26;9.70;69.60
64468;DHT22;50853;46.836;16.820;2022-10-04T02:02:54;9.70;69.90
64468;DHT22;50853;46.836;16.820;2022-10-04T02:05:32;9.70;69.00
64468;DHT22;50853;46.836;16.820;2022-10-04T02:08:14;9.70;68.90
64468;DHT22;50853;46.836;16.820;2022-10-04T02:10:42;9.70;68.10
64468;DHT22;50853;46.836;16.820;2022-10-04T02:13:10;9.60;69.00
64468;DHT22;50853;46.836;16.820;2022-10-04T02:15:39;9.70;69.00
64468;DHT22;50853;46.836;16.820;2022-10-04T02:18:11;9.70;68.70
64468;DHT22;50853;46.836;16.820;2022-10-04T02:20:39;9.70;68.60
64468;DHT22;50853;46.836;16.820;2022-10-04T02:23:06;9.70;68.80
64468;DHT22;50853;46.836;16.820;2022-10-04T02:25:35;9.60;69.60
64468;DHT22;50853;46.836;16.820;2022-10-04T02:28:02;9.50;70.50
64468;DHT22;50853;46.836;16.820;2022-10-04T02:30:35;9.50;71.60
64468;DHT22;50853;46.836;16.820;2022-10-04T02:33:02;9.40;72.80
64468;DHT22;50853;46.836;16.820;2022-10-04T02:35:33;9.40;73.40
64468;DHT22;50853;46.836;16.820;2022-10-04T02:38:08;9.30;73.60
64468;DHT22;50853;46.836;16.820;2022-10-04T02:41:00;9.30;73.90
64468;DHT22;50853;46.836;16.820;2022-10-04T02:43:49;9.30;72.90
64468;DHT22;50853;46.836;16.820;2022-10-04T02:51:18;9.20;75.40
64468;DHT22;50853;46.836;16.820;2022-10-04T02:54:00;9.10;76.70
64468;DHT22;50853;46.836;16.820;2022-10-04T02:56:28;9.10;77.70
64468;DHT22;50853;46.836;16.820;2022-10-04T02:58:54;9.00;79.50
64468;DHT22;50853;46.836;16.820;2022-10-04T03:01:40;9.00;80.60
64468;DHT22;50853;46.836;16.820;2022-10-04T03:04:11;8.90;80.20
64468;DHT22;50853;46.836;16.820;2022-10-04T03:06:42;8.90;82.40
64468;DHT22;50853;46.836;16.820;2022-10-04T03:09:10;8.90;80.80
64468;DHT22;50853;46.836;16.820;2022-10-04T03:11:38;8.80;81.20
64468;DHT22;50853;46.836;16.820;2022-10-04T03:14:25;8.80;80.30
64468;DHT22;50853;46.836;16.820;2022-10-04T03:16:54;8.80;80.20
64468;DHT22;50853;46.836;16.820;2022-10-04T03:19:26;8.80;77.70
64468;DHT22;50853;46.836;16.820;2022-10-04T03:21:56;8.70;77.40
64468;DHT22;50853;46.836;16.820;2022-10-04T03:24:30;8.80;76.70
64468;DHT22;50853;46.836;16.820;2022-10-04T03:26:59;8.80;77.50
64468;DHT22;50853;46.836;16.820;2022-10-04T03:29:28;8.80;76.30
64468;DHT22;50853;46.836;16.820;2022-10-04T03:31:59;8.80;76.60
64468;DHT22;50853;46.836;16.820;2022-10-04T03:34:40;8.80;75.30
64468;DHT22;50853;46.836;16.820;2022-10-04T03:37:14;8.80;75.50
64468;DHT22;50853;46.836;16.820;2022-10-04T03:39:54;8.80;76.30
64468;DHT22;50853;46.836;16.820;2022-10-04T03:42:35;8.80;76.10
64468;DHT22;50853;46.836;16.820;2022-10-04T03:45:06;8.90;74.10
64468;DHT22;50853;46.836;16.820;2022-10-04T03:47:38;8.90;71.50
64468;DHT22;50853;46.836;16.820;2022-10-04T03:50:16;8.90;73.10
64468;DHT22;50853;46.836;16.820;2022-10-04T03:52:52;8.90;74.90
64468;DHT22;50853;46.836;16.820;2022-10-04T03:55:20;8.80;74.10
64468;DHT22;50853;46.836;16.820;2022-10-04T03:57:48;8.80;73.40
64468;DHT22;50853;46.836;16.820;2022-10-04T04:00:16;8.80;72.80
64468;DHT22;50853;46.836;16.820;2022-10-04T04:02:51;8.80;72.10
64468;DHT22;50853;46.836;16.820;2022-10-04T04:05:30;8.80;73.10
64468;DHT22;50853;46.836;16.820;2022-10-04T04:10:29;8.70;72.10
64468;DHT22;50853;46.836;16.820;2022-10-04T04:13:13;8.80;71.20
64468;DHT22;50853;46.836;16.820;2022-10-04T04:15:42;8.70;72.10
64468;DHT22;50853;46.836;16.820;2022-10-04T04:18:20;8.70;72.60
64468;DHT22;50853;46.836;16.820;2022-10-04T04:20:48;8.70;73.30
64468;DHT22;50853;46.836;16.820;2022-10-04T04:23:27;8.70;73.00
64468;DHT22;50853;46.836;16.820;2022-10-04T04:26:00;8.70;73.10
64468;DHT22;50853;46.836;16.820;2022-10-04T04:28:51;8.70;72.80
64468;DHT22;50853;46.836;16.820;2022-10-04T04:31:25;8.70;72.30
64468;DHT22;50853;46.836;16.820;2022-10-04T04:34:00;8.60;73.60
64468;DHT22;50853;46.836;16.820;2022-10-04T04:36:37;8.60;72.90
64468;DHT22;50853;46.836;16.820;2022-10-04T04:39:19;8.60;74.00
64468;DHT22;50853;46.836;16.820;2022-10-04T04:42:14;8.60;74.10
64468;DHT22;50853;46.836;16.820;2022-10-04T04:47:30;8.50;77.00
64468;DHT22;50853;46.836;16.820;2022-10-04T04:50:04;8.50;76.60
64468;DHT22;50853;46.836;16.820;2022-10-04T04:52:31;8.50;77.70
64468;DHT22;50853;46.836;16.820;2022-10-04T04:54:58;8.50;78.60
64468;DHT22;50853;46.836;16.820;2022-10-04T04:57:24;8.50;79.00
64468;DHT22;50853;46.836;16.820;2022-10-04T04:59:57;8.50;80.00
64468;DHT22;50853;46.836;16.820;2022-10-04T05:02:36;8.50;79.50
64468;DHT22;50853;46.836;16.820;2022-10-04T05:05:16;8.50;76.80
64468;DHT22;50853;46.836;16.820;2022-10-04T05:07:43;8.50;78.20
64468;DHT22;50853;46.836;16.820;2022-10-04T05:13:21;8.50;78.10
64468;DHT22;50853;46.836;16.820;2022-10-04T05:15:51;8.60;78.90
64468;DHT22;50853;46.836;16.820;2022-10-04T05:18:28;8.60;77.00
64468;DHT22;50853;46.836;16.820;2022-10-04T05:20:56;8.60;78.30
64468;DHT22;50853;46.836;16.820;2022-10-04T05:23:23;8.60;77.50
64468;DHT22;50853;46.836;16.820;2022-10-04T05:25:49;8.60;79.70
64468;DHT22;50853;46.836;16.820;2022-10-04T05:28:16;8.60;80.70
64468;DHT22;50853;46.836;16.820;2022-10-04T05:31:02;8.70;82.60
64468;DHT22;50853;46.836;16.820;2022-10-04T05:33:56;8.70;81.50
64468;DHT22;50853;46.836;16.820;2022-10-04T05:42:23;8.80;83.50
64468;DHT22;50853;46.836;16.820;2022-10-04T05:44:56;8.80;83.20
64468;DHT22;50853;46.836;16.820;2022-10-04T05:47:26;8.80;83.60
64468;DHT22;50853;46.836;16.820;2022-10-04T05:49:55;8.80;81.80
64468;DHT22;50853;46.836;16.820;2022-10-04T05:52:32;8.90;82.20
64468;DHT22;50853;46.836;16.820;2022-10-04T05:55:22;8.90;84.00
64468;DHT22;50853;46.836;16.820;2022-10-04T05:58:31;8.90;82.50
64468;DHT22;50853;46.836;16.820;2022-10-04T06:06:56;9.10;82.90
64468;DHT22;50853;46.836;16.820;2022-10-04T06:15:04;9.30;83.70
64468;DHT22;50853;46.836;16.820;2022-10-04T06:17:41;9.30;84.00
64468;DHT22;50853;46.836;16.820;2022-10-04T06:22:59;9.40;85.70
64468;DHT22;50853;46.836;16.820;2022-10-04T06:28:22;9.60;87.20
64468;DHT22;50853;46.836;16.820;2022-10-04T06:58:44;10.20;83.80
64468;DHT22;50853;46.836;16.820;2022-10-04T07:01:29;10.20;79.90
64468;DHT22;50853;46.836;16.820;2022-10-04T07:12:25;10.40;79.50
64468;DHT22;50853;46.836;16.820;2022-10-04T07:14:56;10.40;77.60
64468;DHT22;50853;46.836;16.820;2022-10-04T07:17:40;10.40;78.00
64468;DHT22;50853;46.836;16.820;2022-10-04T07:20:27;10.50;80.10
64468;DHT22;50853;46.836;16.820;2022-10-04T07:25:35;10.60;76.40
64468;DHT22;50853;46.836;16.820;2022-10-04T07:31:01;10.70;78.80
64468;DHT22;50853;46.836;16.820;2022-10-04T07:33:49;10.80;79.20
64468;DHT22;50853;46.836;16.820;2022-10-04T07:36:24;10.90;78.70
64468;DHT22;50853;46.836;16.820;2022-10-04T07:39:39;11.00;79.70
64468;DHT22;50853;46.836;16.820;2022-10-04T07:41:55;11.00;78.90
64468;DHT22;50853;46.836;16.820;2022-10-04T07:44:46;11.20;77.70
64468;DHT22;50853;46.836;16.820;2022-10-04T07:47:21;11.30;79.60
64468;DHT22;50853;46.836;16.820;2022-10-04T07:49:51;11.40;79.80
64468;DHT22;50853;46.836;16.820;2022-10-04T08:11:59;12.30;75.40
64468;DHT22;50853;46.836;16.820;2022-10-04T08:17:44;12.60;76.20
64468;DHT22;50853;46.836;16.820;2022-10-04T08:41:38;13.80;72.70
64468;DHT22;50853;46.836;16.820;2022-10-04T08:47:02;14.20;75.50
64468;DHT22;50853;46.836;16.820;2022-10-04T08:57:41;14.40;72.50
64468;DHT22;50853;46.836;16.820;2022-10-04T09:43:42;15.50;69.40
64468;DHT22;50853;46.836;16.820;2022-10-04T09:46:28;15.60;69.10
64468;DHT22;50853;46.836;16.820;2022-10-04T09:49:24;15.70;66.60
64468;DHT22;50853;46.836;16.820;2022-10-04T10:00:19;16.10;67.10
64468;DHT22;50853;46.836;16.820;2022-10-04T10:08:30;16.30;66.40
64468;DHT22;50853;46.836;16.820;2022-10-04T10:19:41;16.70;66.90
64468;DHT22;50853;46.836;16.820;2022-10-04T10:37:08;17.80;64.60
64468;DHT22;50853;46.836;16.820;2022-10-04T10:48:14;18.30;64.50
64468;DHT22;50853;46.836;16.820;2022-10-04T10:56:44;18.50;60.00
64468;DHT22;50853;46.836;16.820;2022-10-04T11:02:13;18.60;60.70
64468;DHT22;50853;46.836;16.820;2022-10-04T11:16:48;18.70;56.80
64468;DHT22;50853;46.836;16.820;2022-10-04T11:22:44;18.70;60.60
64468;DHT22;50853;46.836;16.820;2022-10-04T11:39:47;18.40;61.80
64468;DHT22;50853;46.836;16.820;2022-10-04T11:45:16;18.30;61.90
64468;DHT22;50853;46.836;16.820;2022-10-04T11:56:07;18.20;62.80
64468;DHT22;50853;46.836;16.820;2022-10-04T12:10:26;18.50;60.10
64468;DHT22;50853;46.836;16.820;2022-10-04T12:22:04;19.00;59.50
64468;DHT22;50853;46.836;16.820;2022-10-04T12:30:52;18.70;56.20
64468;DHT22;50853;46.836;16.820;2022-10-04T12:33:31;18.70;54.30
64468;DHT22;50853;46.836;16.820;2022-10-04T12:36:17;18.80;55.90
64468;DHT22;50853;46.836;16.820;2022-10-04T12:38:53;18.90;58.90
64468;DHT22;50853;46.836;16.820;2022-10-04T12:44:38;18.60;54.50
64468;DHT22;50853;46.836;16.820;2022-10-04T12:52:54;18.50;56.60
64468;DHT22;50853;46.836;16.820;2022-10-04T12:55:54;18.40;53.30
64468;DHT22;50853;46.836;16.820;2022-10-04T12:58:27;18.30;56.80
64468;DHT22;50853;46.836;16.820;2022-10-04T13:01:11;18.50;58.20
64468;DHT22;50853;46.836;16.820;2022-10-04T13:04:03;18.50;55.70
64468;DHT22;50853;46.836;16.820;2022-10-04T13:06:55;18.50;53.80
64468;DHT22;50853;46.836;16.820;2022-10-04T13:15:01;18.50;57.00
64468;DHT22;50853;46.836;16.820;2022-10-04T13:23:07;18.60;56.40
64468;DHT22;50853;46.836;16.820;2022-10-04T13:28:53;18.60;52.30
64468;DHT22;50853;46.836;16.820;2022-10-04T13:31:47;18.50;52.70
64468;DHT22;50853;46.836;16.820;2022-10-04T13:45:54;18.50;54.00
64468;DHT22;50853;46.836;16.820;2022-10-04T13:48:52;18.30;50.90
64468;DHT22;50853;46.836;16.820;2022-10-04T13:58:14;18.10;53.60
64468;DHT22;50853;46.836;16.820;2022-10-04T14:48:55;16.80;55.70
64468;DHT22;50853;46.836;16.820;2022-10-04T14:57:16;16.60;56.70
64468;DHT22;50853;46.836;16.820;2022-10-04T15:02:46;16.60;57.60
64468;DHT22;50853;46.836;16.820;2022-10-04T15:11:13;16.30;56.00
64468;DHT22;50853;46.836;16.820;2022-10-04T15:13:56;16.30;55.30
64468;DHT22;50853;46.836;16.820;2022-10-04T15:19:34;16.30;55.00
64468;DHT22;50853;46.836;16.820;2022-10-04T15:37:02;16.10;54.60
64468;DHT22;50853;46.836;16.820;2022-10-04T15:44:50;16.00;55.40
64468;DHT22;50853;46.836;16.820;2022-10-04T15:47:27;16.00;55.00
64468;DHT22;50853;46.836;16.820;2022-10-04T15:55:28;15.90;55.90
64468;DHT22;50853;46.836;16.820;2022-10-04T16:24:38;15.00;60.00
64468;DHT22;50853;46.836;16.820;2022-10-04T16:33:11;14.70;61.70
64468;DHT22;50853;46.836;16.820;2022-10-04T16:35:41;14.60;61.90
64468;DHT22;50853;46.836;16.820;2022-10-04T16:40:58;14.50;61.70
64468;DHT22;50853;46.836;16.820;2022-10-04T16:43:28;14.40;61.80
64468;DHT22;50853;46.836;16.820;2022-10-04T16:49:01;14.30;61.70
64468;DHT22;50853;46.836;16.820;2022-10-04T16:51:57;14.30;61.00
64468;DHT22;50853;46.836;16.820;2022-10-04T16:59:45;14.20;61.20
64468;DHT22;50853;46.836;16.820;2022-10-04T17:05:33;14.10;62.00
64468;DHT22;50853;46.836;16.820;2022-10-04T17:08:21;14.00;62.10
64468;DHT22;50853;46.836;16.820;2022-10-04T17:11:10;13.90;62.10
64468;DHT22;50853;46.836;16.820;2022-10-04T17:16:27;14.10;59.20
64468;DHT22;50853;46.836;16.820;2022-10-04T17:27:49;13.50;67.30
64468;DHT22;50853;46.836;16.820;2022-10-04T17:30:21;13.30;66.90
64468;DHT22;50853;46.836;16.820;2022-10-04T17:33:18;13.40;65.10
64468;DHT22;50853;46.836;16.820;2022-10-04T17:52:58;13.40;63.60
64468;DHT22;50853;46.836;16.820;2022-10-04T17:55:53;13.40;63.70
64468;DHT22;50853;46.836;16.820;2022-10-04T17:58:46;13.40;63.70
64468;DHT22;50853;46.836;16.820;2022-10-04T18:04:25;13.50;63.00
64468;DHT22;50853;46.836;16.820;2022-10-04T18:07:24;13.50;62.90
64468;DHT22;50853;46.836;16.820;2022-10-04T18:09:57;13.50;63.10
64468;DHT22;50853;46.836;16.820;2022-10-04T18:15:31;13.50;63.20
64468;DHT22;50853;46.836;16.820;2022-10-04T18:18:40;13.50;63.10
64468;DHT22;50853;46.836;16.820;2022-10-04T18:21:28;13.50;63.00
64468;DHT22;50853;46.836;16.820;2022-10-04T18:24:18;13.40;63.30
64468;DHT22;50853;46.836;16.820;2022-10-04T18:34:53;13.10;63.80
64468;DHT22;50853;46.836;16.820;2022-10-04T18:37:40;13.10;63.80
64468;DHT22;50853;46.836;16.820;2022-10-04T18:40:21;13.00;64.20
64468;DHT22;50853;46.836;16.820;2022-10-04T18:42:56;12.90;64.70
64468;DHT22;50853;46.836;16.820;2022-10-04T18:45:27;12.90;65.10
64468;DHT22;50853;46.836;16.820;2022-10-04T18:47:55;12.80;66.20
64468;DHT22;50853;46.836;16.820;2022-10-04T18:50:39;12.70;65.40
64468;DHT22;50853;46.836;16.820;2022-10-04T18:56:11;12.70;65.40
64468;DHT22;50853;46.836;16.820;2022-10-04T19:04:44;12.40;67.10
64468;DHT22;50853;46.836;16.820;2022-10-04T19:08:03;12.40;65.80
64468;DHT22;50853;46.836;16.820;2022-10-04T19:18:39;12.00;68.80
64468;DHT22;50853;46.836;16.820;2022-10-04T19:21:54;12.00;68.70
64468;DHT22;50853;46.836;16.820;2022-10-04T19:24:16;12.00;69.20
64468;DHT22;50853;46.836;16.820;2022-10-04T19:26:46;11.90;68.50
64468;DHT22;50853;46.836;16.820;2022-10-04T19:34:38;11.90;67.30
64468;DHT22;50853;46.836;16.820;2022-10-04T19:37:21;11.80;70.00
64468;DHT22;50853;46.836;16.820;2022-10-04T19:40:06;11.70;69.00
64468;DHT22;50853;46.836;16.820;2022-10-04T19:45:30;11.60;69.90
64468;DHT22;50853;46.836;16.820;2022-10-04T19:48:01;11.60;71.30
64468;DHT22;50853;46.836;16.820;2022-10-04T19:50:40;11.40;71.30
64468;DHT22;50853;46.836;16.820;2022-10-04T19:53:16;11.40;70.80
64468;DHT22;50853;46.836;16.820;2022-10-04T19:55:57;11.40;72.00
64468;DHT22;50853;46.836;16.820;2022-10-04T20:00:49;11.30;70.80
64468;DHT22;50853;46.836;16.820;2022-10-04T20:03:15;11.20;72.10
64468;DHT22;50853;46.836;16.820;2022-10-04T20:05:43;11.20;72.40
64468;DHT22;50853;46.836;16.820;2022-10-04T20:08:11;11.10;72.20
64468;DHT22;50853;46.836;16.820;2022-10-04T20:10:38;11.20;71.00
64468;DHT22;50853;46.836;16.820;2022-10-04T20:15:56;11.10;71.20
64468;DHT22;50853;46.836;16.820;2022-10-04T20:26:43;11.00;72.40
64468;DHT22;50853;46.836;16.820;2022-10-04T20:32:09;10.80;73.90
64468;DHT22;50853;46.836;16.820;2022-10-04T20:37:05;10.70;74.80
64468;DHT22;50853;46.836;16.820;2022-10-04T20:44:51;10.50;77.50
64468;DHT22;50853;46.836;16.820;2022-10-04T20:53:11;10.30;78.70
64468;DHT22;50853;46.836;16.820;2022-10-04T20:55:38;10.20;77.60
64468;DHT22;50853;46.836;16.820;2022-10-04T21:00:52;10.20;77.80
64468;DHT22;50853;46.836;16.820;2022-10-04T21:03:18;10.20;78.20
64468;DHT22;50853;46.836;16.820;2022-10-04T21:05:59;10.10;77.50
64468;DHT22;50853;46.836;16.820;2022-10-04T21:08:26;10.10;78.40
64468;DHT22;50853;46.836;16.820;2022-10-04T21:11:15;10.00;79.90
64468;DHT22;50853;46.836;16.820;2022-10-04T21:14:00;10.00;81.00
64468;DHT22;50853;46.836;16.820;2022-10-04T21:16:33;9.90;79.30
64468;DHT22;50853;46.836;16.820;2022-10-04T21:22:06;9.90;82.10
64468;DHT22;50853;46.836;16.820;2022-10-04T21:24:35;9.90;82.90
64468;DHT22;50853;46.836;16.820;2022-10-04T21:27:02;9.80;81.50
64468;DHT22;50853;46.836;16.820;2022-10-04T21:29:28;9.90;81.80
64468;DHT22;50853;46.836;16.820;2022-10-04T21:31:57;9.80;82.00
64468;DHT22;50853;46.836;16.820;2022-10-04T21:34:24;9.70;81.90
64468;DHT22;50853;46.836;16.820;2022-10-04T21:36:50;9.80;80.00
64468;DHT22;50853;46.836;16.820;2022-10-04T21:39:16;9.80;78.30
64468;DHT22;50853;46.836;16.820;2022-10-04T21:41:42;9.80;78.00
64468;DHT22;50853;46.836;16.820;2022-10-04T21:44:08;9.80;80.90
64468;DHT22;50853;46.836;16.820;2022-10-04T21:46:34;9.80;81.10
64468;DHT22;50853;46.836;16.820;2022-10-04T21:49:02;9.80;80.40
64468;DHT22;50853;46.836;16.820;2022-10-04T21:51:27;9.70;81.40
64468;DHT22;50853;46.836;16.820;2022-10-04T21:53:57;9.70;81.10
64468;DHT22;50853;46.836;16.820;2022-10-04T21:56:24;9.70;81.20
64468;DHT22;50853;46.836;16.820;2022-10-04T21:58:50;9.60;80.10
64468;DHT22;50853;46.836;16.820;2022-10-04T22:01:15;9.60;79.90
64468;DHT22;50853;46.836;16.820;2022-10-04T22:03:41;9.60;79.90
64468;DHT22;50853;46.836;16.820;2022-10-04T22:06:07;9.60;80.70
64468;DHT22;50853;46.836;16.820;2022-10-04T22:08:33;9.50;80.70
64468;DHT22;50853;46.836;16.820;2022-10-04T22:10:59;9.50;81.10
64468;DHT22;50853;46.836;16.820;2022-10-04T22:13:25;9.40;81.80
64468;DHT22;50853;46.836;16.820;2022-10-04T22:15:51;9.40;82.70
64468;DHT22;50853;46.836;16.820;2022-10-04T22:18:17;9.30;82.80
64468;DHT22;50853;46.836;16.820;2022-10-04T22:20:43;9.30;83.30
64468;DHT22;50853;46.836;16.820;2022-10-04T22:23:19;9.20;82.90
64468;DHT22;50853;46.836;16.820;2022-10-04T22:25:45;9.20;82.20
64468;DHT22;50853;46.836;16.820;2022-10-04T22:28:22;9.20;82.60
64468;DHT22;50853;46.836;16.820;2022-10-04T22:30:48;9.10;82.90
64468;DHT22;50853;46.836;16.820;2022-10-04T22:33:36;9.20;83.30
64468;DHT22;50853;46.836;16.820;2022-10-04T22:41:39;9.10;84.60
64468;DHT22;50853;46.836;16.820;2022-10-04T22:44:19;9.00;86.80
64468;DHT22;50853;46.836;16.820;2022-10-04T22:46:51;9.00;86.80
64468;DHT22;50853;46.836;16.820;2022-10-04T22:49:24;9.00;86.70
64468;DHT22;50853;46.836;16.820;2022-10-04T22:51:53;8.90;85.60
64468;DHT22;50853;46.836;16.820;2022-10-04T22:54:22;8.90;87.70
64468;DHT22;50853;46.836;16.820;2022-10-04T22:56:50;8.80;87.20
64468;DHT22;50853;46.836;16.820;2022-10-04T22:59:18;8.80;86.70
64468;DHT22;50853;46.836;16.820;2022-10-04T23:01:45;8.80;86.70
64468;DHT22;50853;46.836;16.820;2022-10-04T23:04:24;8.70;87.50
64468;DHT22;50853;46.836;16.820;2022-10-04T23:06:51;8.70;86.70
64468;DHT22;50853;46.836;16.820;2022-10-04T23:09:18;8.70;85.70
64468;DHT22;50853;46.836;16.820;2022-10-04T23:11:44;8.60;87.90
64468;DHT22;50853;46.836;16.820;2022-10-04T23:14:10;8.60;87.70
64468;DHT22;50853;46.836;16.820;2022-10-04T23:16:36;8.60;86.50
64468;DHT22;50853;46.836;16.820;2022-10-04T23:19:16;8.60;87.90
64468;DHT22;50853;46.836;16.820;2022-10-04T23:21:46;8.50;88.50
64468;DHT22;50853;46.836;16.820;2022-10-04T23:26:43;8.40;88.10
64468;DHT22;50853;46.836;16.820;2022-10-04T23:29:29;8.40;89.90
64468;DHT22;50853;46.836;16.820;2022-10-04T23:31:56;8.40;90.50
64468;DHT22;50853;46.836;16.820;2022-10-04T23:34:33;8.40;88.50
64468;DHT22;50853;46.836;16.820;2022-10-04T23:36:59;8.40;89.20
64468;DHT22;50853;46.836;16.820;2022-10-04T23:39:31;8.40;88.70
64468;DHT22;50853;46.836;16.820;2022-10-04T23:41:59;8.30;89.20
64468;DHT22;50853;46.836;16.820;2022-10-04T23:44:38;8.30;90.10
64468;DHT22;50853;46.836;16.820;2022-10-04T23:47:19;8.30;88.80
64468;DHT22;50853;46.836;16.820;2022-10-04T23:49:48;8.30;89.90
64468;DHT22;50853;46.836;16.820;2022-10-04T23:52:29;8.20;88.70
64468;DHT22;50853;46.836;16.820;2022-10-04T23:54:58;8.20;88.70
64468;DHT22;50853;46.836;16.820;2022-10-04T23:57:26;8.30;90.50
64468;DHT22;50853;46.836;16.820;2022-10-04T23:59:53;8.30;90.90
